Time;durP1;ratioP1;P1;durP2;ratioP2;P2;SDS_P1;SDS_P2;PMS_P1;PMS_P2;Temp;Humidity;BMP_temperature;BMP_pressure;BME280_temperature;BME280_humidity;BME280_pressure;Samples;Min_cycle;Max_cycle;Signal;HPM_P1;HPM_P2
2024/03/20 00:00:01;;;;;;;176.40;119.50;;;;;;;1.34;67.57;101209.37;111092;1256;24298;-67
2024/03/20 00:02:59;;;;;;;194.70;128.10;;;;;;;1.30;67.41;101206.14;111120;1256;21939;-68
2024/03/20 00:05:28;;;;;;;184.60;123.90;;;;;;;1.29;67.46;101203.41;111142;1256;22471;-68
2024/03/20 00:07:57;;;;;;;192.10;125.60;;;;;;;1.28;67.68;101197.50;111150;1256;23572;-69
2024/03/20 00:10:26;;;;;;;201.40;129.60;;;;;;;1.29;67.44;101204.42;111110;1255;22627;-68
2024/03/20 00:12:56;;;;;;;205.10;130.80;;;;;;;1.27;67.41;101205.16;111180;1256;21956;-70
2024/03/20 00:15:25;;;;;;;202.20;131.40;;;;;;;1.24;67.50;101210.94;111056;1256;22148;-70
2024/03/20 00:17:53;;;;;;;192.70;130.40;;;;;;;1.20;67.25;101207.02;111069;1256;22882;-68
2024/03/20 00:20:24;;;;;;;182.50;117.60;;;;;;;1.15;67.27;101204.34;111076;1256;21989;-69
2024/03/20 00:22:53;;;;;;;200.10;127.80;;;;;;;1.12;67.28;101201.10;111081;1256;21956;-69
2024/03/20 00:25:22;;;;;;;186.20;119.10;;;;;;;1.09;67.44;101198.21;111092;1256;21948;-66
2024/03/20 00:27:51;;;;;;;189.00;121.10;;;;;;;1.07;67.50;101200.33;111078;1256;21955;-67
2024/03/20 00:30:20;;;;;;;188.10;121.90;;;;;;;1.04;67.68;101203.49;111059;1256;21962;-67
2024/03/20 00:32:48;;;;;;;186.10;125.80;;;;;;;1.01;67.48;101205.97;111095;1256;21966;-67
2024/03/20 00:35:18;;;;;;;180.20;117.60;;;;;;;0.99;67.72;101204.09;111125;1256;22431;-67
2024/03/20 00:37:46;;;;;;;183.30;117.90;;;;;;;0.98;67.82;101200.13;111048;1256;22529;-67
2024/03/20 00:40:15;;;;;;;157.70;104.40;;;;;;;0.95;67.76;101197.55;111100;1256;22822;-67
2024/03/20 00:42:45;;;;;;;166.60;110.90;;;;;;;0.95;67.98;101197.05;111175;1256;23699;-67
2024/03/20 00:45:14;;;;;;;171.50;116.60;;;;;;;0.94;67.80;101195.70;111070;1256;23098;-68
2024/03/20 00:47:43;;;;;;;165.10;111.30;;;;;;;0.93;67.93;101192.57;111153;1245;21961;-67
2024/03/20 00:50:11;;;;;;;148.90;102.20;;;;;;;0.92;68.05;101191.55;111118;1256;21967;-68
2024/03/20 00:52:41;;;;;;;145.10;98.50;;;;;;;0.91;67.83;101193.12;111182;1256;21958;-68
2024/03/20 00:55:20;;;;;;;145.50;100.50;;;;;;;0.86;68.03;101191.98;111138;1256;23012;-67
2024/03/20 00:57:49;;;;;;;155.80;101.20;;;;;;;0.80;68.35;101185.16;111136;1256;23652;-67
2024/03/20 01:00:18;;;;;;;146.30;99.70;;;;;;;0.75;68.37;101186.64;110818;1256;22430;-66
2024/03/20 01:02:47;;;;;;;139.00;98.70;;;;;;;0.69;68.48;101187.42;111278;1256;21952;-65
2024/03/20 01:05:16;;;;;;;146.90;98.80;;;;;;;0.64;68.65;101181.80;111128;1256;23560;-68
2024/03/20 01:07:45;;;;;;;151.00;96.60;;;;;;;0.60;68.69;101176.83;111094;1256;21954;-67
2024/03/20 01:10:14;;;;;;;151.40;96.80;;;;;;;0.57;68.74;101175.31;111044;1256;22932;-67
2024/03/20 01:12:42;;;;;;;155.10;101.60;;;;;;;0.55;68.72;101170.49;111101;1256;21961;-66
2024/03/20 01:15:11;;;;;;;157.20;100.30;;;;;;;0.54;68.84;101169.98;111109;1256;23013;-66
2024/03/20 01:17:40;;;;;;;150.30;96.40;;;;;;;0.56;69.01;101168.91;111130;1256;21996;-66
2024/03/20 01:20:13;;;;;;;144.70;94.40;;;;;;;0.58;69.06;101168.52;110759;1256;21957;-66
2024/03/20 01:22:42;;;;;;;159.90;99.40;;;;;;;0.59;68.88;101164.54;110971;1256;22001;-67
2024/03/20 01:25:11;;;;;;;162.00;100.90;;;;;;;0.61;69.04;101163.11;110919;1256;21923;-66
2024/03/20 01:27:40;;;;;;;170.80;101.60;;;;;;;0.64;68.90;101159.94;110951;1255;21966;-67
2024/03/20 01:30:09;;;;;;;147.90;94.70;;;;;;;0.66;68.84;101163.55;111168;1256;23560;-67
2024/03/20 01:32:38;;;;;;;136.40;93.30;;;;;;;0.67;68.72;101156.77;111115;1256;21998;-67
2024/03/20 01:35:07;;;;;;;131.70;90.80;;;;;;;0.69;68.88;101152.77;111211;1256;21961;-67
2024/03/20 01:37:36;;;;;;;132.40;90.60;;;;;;;0.69;68.96;101147.75;111135;1256;22401;-67
2024/03/20 01:40:07;;;;;;;137.80;88.70;;;;;;;0.70;68.84;101147.73;110905;1254;23111;-67
2024/03/20 01:42:36;;;;;;;126.80;88.80;;;;;;;0.68;68.84;101144.11;111067;1256;21962;-65
2024/03/20 01:45:17;;;;;;;118.50;85.40;;;;;;;0.68;68.88;101145.16;111035;1256;23013;-66
2024/03/20 01:47:47;;;;;;;122.90;84.20;;;;;;;0.67;68.93;101150.89;110817;1256;21967;-67
2024/03/20 01:50:16;;;;;;;118.50;81.50;;;;;;;0.68;68.86;101151.58;111003;1254;21968;-66
2024/03/20 01:52:56;;;;;;;112.60;78.40;;;;;;;0.68;69.11;101146.89;111280;1256;23601;-67
2024/03/20 01:55:25;;;;;;;120.60;81.60;;;;;;;0.68;68.87;101144.64;111143;1256;21979;-68
2024/03/20 01:57:54;;;;;;;116.40;85.00;;;;;;;0.67;69.06;101143.63;111141;1256;21973;-66
2024/03/20 02:00:27;;;;;;;131.70;91.30;;;;;;;0.64;69.20;101142.61;111125;1251;23222;-66
2024/03/20 02:03:05;;;;;;;183.50;105.10;;;;;;;0.64;69.39;101136.56;110542;1256;21955;-67
2024/03/20 02:05:34;;;;;;;190.70;110.80;;;;;;;0.62;69.18;101135.90;110904;1257;23022;-67
2024/03/20 02:08:04;;;;;;;201.00;113.30;;;;;;;0.61;69.42;101135.39;110961;1256;23719;-65
2024/03/20 02:10:32;;;;;;;193.30;108.80;;;;;;;0.60;69.33;101132.80;110831;1256;21958;-68
2024/03/20 02:13:05;;;;;;;171.90;99.00;;;;;;;0.60;69.31;101129.88;111131;1256;21971;-67
2024/03/20 02:15:34;;;;;;;156.50;97.10;;;;;;;0.59;69.35;101130.40;111166;1256;22247;-68
2024/03/20 02:18:04;;;;;;;161.30;93.00;;;;;;;0.60;69.45;101132.11;111114;1256;22460;-68
2024/03/20 02:20:34;;;;;;;170.40;99.00;;;;;;;0.58;69.38;101131.28;111172;1256;22462;-68
2024/03/20 02:23:03;;;;;;;162.50;96.40;;;;;;;0.56;69.32;101128.71;111096;1255;21962;-67
2024/03/20 02:25:32;;;;;;;160.60;98.00;;;;;;;0.55;69.55;101130.27;111136;1256;21998;-68
2024/03/20 02:28:00;;;;;;;161.50;101.90;;;;;;;0.56;69.33;101134.95;111082;1256;21956;-68
2024/03/20 02:30:29;;;;;;;162.60;98.90;;;;;;;0.58;69.32;101130.24;111104;1256;22026;-68
2024/03/20 02:32:58;;;;;;;158.90;95.00;;;;;;;0.59;69.30;101127.45;111073;1256;21984;-68
2024/03/20 02:35:27;;;;;;;155.50;93.80;;;;;;;0.58;69.30;101125.55;111109;1256;21964;-65
2024/03/20 02:37:56;;;;;;;166.80;107.10;;;;;;;0.58;69.32;101125.57;110943;1256;21965;-68
2024/03/20 02:40:26;;;;;;;172.10;105.50;;;;;;;0.57;69.12;101124.55;111131;1256;22001;-67
2024/03/20 02:42:55;;;;;;;158.50;98.60;;;;;;;0.55;69.25;101122.67;111069;1256;21962;-67
2024/03/20 02:45:23;;;;;;;151.60;95.00;;;;;;;0.52;69.14;101123.77;111073;1256;21945;-68
2024/03/20 02:47:52;;;;;;;152.00;94.20;;;;;;;0.49;69.15;101122.77;111072;1256;21956;-68
2024/03/20 02:50:21;;;;;;;139.80;89.80;;;;;;;0.46;69.16;101117.79;111102;1256;21961;-67
2024/03/20 02:52:50;;;;;;;133.20;87.20;;;;;;;0.44;69.28;101115.73;110782;1255;23598;-66
2024/03/20 02:55:19;;;;;;;134.50;90.90;;;;;;;0.42;69.21;101110.23;111154;1256;23800;-67
2024/03/20 02:57:48;;;;;;;125.80;86.60;;;;;;;0.41;69.24;101113.03;111108;1256;23577;-68
2024/03/20 03:00:17;;;;;;;133.90;86.20;;;;;;;0.38;69.43;101112.88;111106;1256;24110;-68
2024/03/20 03:02:46;;;;;;;129.90;84.60;;;;;;;0.37;69.55;101114.13;111105;1255;23608;-68
2024/03/20 03:05:14;;;;;;;125.70;83.30;;;;;;;0.35;69.35;101110.16;110785;1256;24324;-68
2024/03/20 03:07:43;;;;;;;125.50;83.10;;;;;;;0.35;69.59;101107.75;110825;1256;21972;-67
2024/03/20 03:10:15;;;;;;;127.10;85.30;;;;;;;0.33;69.60;101104.14;110839;1256;21955;-66
2024/03/20 03:12:54;;;;;;;130.10;85.80;;;;;;;0.31;69.73;101100.55;110861;1255;21968;-68
2024/03/20 03:15:22;;;;;;;126.50;83.20;;;;;;;0.30;69.72;101107.48;110833;1256;22099;-68
2024/03/20 03:17:54;;;;;;;113.40;82.30;;;;;;;0.30;69.71;101104.54;111344;1256;22430;-67
2024/03/20 03:20:26;;;;;;;122.90;84.70;;;;;;;0.31;69.88;101097.94;111350;1256;23541;-66
2024/03/20 03:22:54;;;;;;;127.60;85.90;;;;;;;0.30;69.72;101096.22;110984;1256;22654;-66
2024/03/20 03:25:23;;;;;;;118.70;83.10;;;;;;;0.29;69.99;101096.74;110971;1257;21958;-65
2024/03/20 03:27:53;;;;;;;121.50;83.80;;;;;;;0.33;69.80;101099.46;111493;1251;22665;-66
2024/03/20 03:30:21;;;;;;;124.10;85.70;;;;;;;0.35;69.82;101106.36;111489;1256;21965;-66
2024/03/20 03:32:50;;;;;;;121.50;85.80;;;;;;;0.37;69.91;101102.16;112309;1255;21975;-69
2024/03/20 03:35:21;;;;;;;120.00;85.20;;;;;;;0.39;69.90;101097.98;112698;1256;21974;-68
2024/03/20 03:37:50;;;;;;;118.80;84.30;;;;;;;0.40;69.98;101101.26;112701;1256;21968;-69
2024/03/20 03:40:20;;;;;;;112.50;82.60;;;;;;;0.44;70.22;101108.45;111257;1256;173488;-69
2024/03/20 03:42:49;;;;;;;106.00;80.40;;;;;;;0.46;70.02;101111.73;111080;1256;21958;-68
2024/03/20 03:45:18;;;;;;;112.60;79.70;;;;;;;0.48;70.11;101111.52;111150;1256;22013;-68
2024/03/20 03:47:47;;;;;;;110.10;78.50;;;;;;;0.49;70.11;101116.18;111054;1256;23054;-68
2024/03/20 03:50:16;;;;;;;102.50;76.10;;;;;;;0.46;69.98;101114.48;111072;1256;22184;-67
2024/03/20 03:52:45;;;;;;;109.10;79.70;;;;;;;0.45;70.03;101116.59;111080;1255;21958;-70
2024/03/20 03:55:14;;;;;;;106.00;77.20;;;;;;;0.43;70.14;101119.05;111163;1256;22946;-67
2024/03/20 03:57:43;;;;;;;110.80;78.00;;;;;;;0.44;69.99;101115.39;111110;1256;23681;-68
2024/03/20 04:00:13;;;;;;;102.30;76.90;;;;;;;0.46;69.91;101111.55;111126;1256;23671;-68
2024/03/20 04:02:42;;;;;;;106.60;76.90;;;;;;;0.45;69.87;101110.52;111158;1256;22025;-68
2024/03/20 04:05:10;;;;;;;115.00;87.30;;;;;;;0.46;69.94;101109.82;111124;1256;22744;-67
2024/03/20 04:07:39;;;;;;;121.20;93.70;;;;;;;0.47;69.95;101110.48;111090;1256;23062;-68
2024/03/20 04:10:08;;;;;;;111.20;81.30;;;;;;;0.49;70.09;101108.04;111117;1257;21961;-66
2024/03/20 04:12:37;;;;;;;105.40;79.20;;;;;;;0.49;69.80;101113.59;110691;1256;21966;-68
2024/03/20 04:15:07;;;;;;;101.40;75.60;;;;;;;0.48;69.85;101116.55;111097;1256;22480;-65
2024/03/20 04:17:36;;;;;;;582.30;336.90;;;;;;;0.48;70.00;101115.33;111142;1256;22027;-68
2024/03/20 04:20:06;;;;;;;420.40;240.00;;;;;;;0.49;69.97;101110.99;111129;1256;22054;-68
2024/03/20 04:22:34;;;;;;;178.50;114.20;;;;;;;0.51;69.96;101112.35;110850;1256;22132;-67
2024/03/20 04:25:04;;;;;;;197.50;137.60;;;;;;;0.51;69.77;101108.35;111233;1256;24150;-66
2024/03/20 04:27:37;;;;;;;173.50;119.70;;;;;;;0.47;69.62;101105.12;111179;1256;22480;-67
2024/03/20 04:30:06;;;;;;;205.60;145.80;;;;;;;0.43;69.81;101105.70;110835;1245;21974;-67
2024/03/20 04:32:35;;;;;;;191.70;131.30;;;;;;;0.41;69.75;101110.42;111242;1256;21994;-69
2024/03/20 04:35:05;;;;;;;147.20;105.60;;;;;;;0.39;69.73;101104.90;111137;1256;21963;-67
2024/03/20 04:37:34;;;;;;;262.20;160.90;;;;;;;0.39;69.87;101098.51;111132;1256;21960;-67
2024/03/20 04:40:03;;;;;;;383.70;283.40;;;;;;;0.38;69.84;101100.06;111099;1256;24303;-67
2024/03/20 04:42:35;;;;;;;513.30;406.10;;;;;;;0.39;69.68;101112.35;111113;1256;22975;-67
2024/03/20 04:45:04;;;;;;;554.20;447.40;;;;;;;0.39;69.92;101113.73;111162;1256;23679;-66
2024/03/20 04:47:37;;;;;;;450.40;351.60;;;;;;;0.40;69.97;101113.73;111064;1244;23017;-67
2024/03/20 04:50:11;;;;;;;287.60;200.70;;;;;;;0.42;70.14;101112.65;111047;1256;24309;-67
2024/03/20 04:52:40;;;;;;;248.60;177.00;;;;;;;0.44;69.98;101109.67;110740;1256;22758;-65
2024/03/20 04:55:09;;;;;;;269.00;200.30;;;;;;;0.47;70.14;101102.35;110861;1256;22430;-67
2024/03/20 04:57:38;;;;;;;203.40;148.50;;;;;;;0.49;70.20;101109.94;110804;1256;21958;-66
2024/03/20 05:00:15;;;;;;;126.60;97.70;;;;;;;0.50;69.95;101112.70;111181;1256;21958;-66
2024/03/20 05:02:45;;;;;;;116.40;91.90;;;;;;;0.42;70.06;101114.90;110986;1256;23572;-66
2024/03/20 05:05:14;;;;;;;179.10;117.00;;;;;;;0.38;70.30;101112.20;111224;1256;22837;-66
2024/03/20 05:07:42;;;;;;;203.70;131.30;;;;;;;0.40;70.43;101108.54;111140;1256;21963;-66
2024/03/20 05:10:11;;;;;;;291.30;190.50;;;;;;;0.41;70.53;101111.63;110856;1256;23070;-65
2024/03/20 05:12:40;;;;;;;382.10;250.60;;;;;;;0.44;70.65;101108.13;111155;1256;23033;-65
2024/03/20 05:15:10;;;;;;;306.70;191.40;;;;;;;0.48;70.60;101110.48;111177;1256;23749;-66
2024/03/20 05:17:39;;;;;;;211.10;138.20;;;;;;;0.54;70.60;101114.73;110911;1256;21960;-66
2024/03/20 05:20:09;;;;;;;166.40;113.40;;;;;;;0.58;70.72;101117.08;110778;1256;21958;-66
2024/03/20 05:22:38;;;;;;;152.00;106.30;;;;;;;0.61;70.52;101114.61;110811;1254;21958;-67
2024/03/20 05:25:10;;;;;;;153.00;105.40;;;;;;;0.65;70.47;101115.39;111097;1255;21987;-66
2024/03/20 05:27:39;;;;;;;156.10;112.80;;;;;;;0.70;70.34;101106.98;110814;1256;21965;-68
2024/03/20 05:30:08;;;;;;;166.90;128.00;;;;;;;0.76;70.37;101103.08;111170;1256;21970;-68
2024/03/20 05:32:37;;;;;;;123.70;94.90;;;;;;;0.82;70.32;101105.06;111146;1256;23067;-65
2024/03/20 05:35:06;;;;;;;119.50;91.20;;;;;;;0.85;70.03;101112.27;111093;1256;21958;-66
2024/03/20 05:37:36;;;;;;;120.50;92.50;;;;;;;0.85;69.95;101116.44;111092;1256;21958;-66
2024/03/20 05:40:07;;;;;;;128.30;91.40;;;;;;;0.88;70.22;101117.40;111069;1256;24292;-67
2024/03/20 05:42:36;;;;;;;146.00;98.40;;;;;;;0.93;70.20;101117.67;111092;1256;22260;-67
2024/03/20 05:45:05;;;;;;;154.90;101.00;;;;;;;0.98;69.96;101117.05;110799;1255;21962;-67
2024/03/20 05:47:34;;;;;;;148.90;93.50;;;;;;;1.03;70.07;101118.19;111114;1255;24160;-66
2024/03/20 05:50:05;;;;;;;141.70;94.60;;;;;;;1.06;70.03;101119.70;111138;1256;21958;-66
2024/03/20 05:52:34;;;;;;;153.80;96.10;;;;;;;1.09;69.91;101126.21;111137;1256;21964;-69
2024/03/20 05:55:03;;;;;;;149.30;98.90;;;;;;;1.12;69.83;101121.32;111081;1255;21983;-66
2024/03/20 05:57:32;;;;;;;153.40;108.40;;;;;;;1.15;69.79;101122.81;110854;1256;23679;-66
2024/03/20 06:00:03;;;;;;;147.50;107.90;;;;;;;1.17;69.56;101127.98;111147;1256;21970;-67
2024/03/20 06:02:32;;;;;;;162.90;99.90;;;;;;;1.20;69.57;101126.02;111139;1256;21955;-67
2024/03/20 06:05:01;;;;;;;157.20;116.40;;;;;;;1.23;69.43;101119.36;111121;1256;21951;-66
2024/03/20 06:07:30;;;;;;;139.10;104.50;;;;;;;1.28;69.52;101117.03;110812;1256;24237;-66
2024/03/20 06:09:59;;;;;;;137.60;105.50;;;;;;;1.36;69.53;101111.32;111095;1256;22050;-68
2024/03/20 06:12:28;;;;;;;172.10;121.20;;;;;;;1.43;69.35;101110.11;111065;1256;23020;-67
2024/03/20 06:14:56;;;;;;;150.80;111.60;;;;;;;1.52;69.46;101114.64;111142;1256;22068;-68
2024/03/20 06:17:25;;;;;;;143.20;107.00;;;;;;;1.60;69.50;101119.33;110986;1256;22828;-68
2024/03/20 06:19:56;;;;;;;128.90;100.50;;;;;;;1.69;69.54;101120.88;111061;1256;21977;-66
2024/03/20 06:22:26;;;;;;;138.30;104.90;;;;;;;1.83;69.60;101120.73;111098;1256;22049;-68
2024/03/20 06:24:54;;;;;;;134.30;102.40;;;;;;;1.98;69.15;101118.34;111084;1256;22726;-67
2024/03/20 06:27:23;;;;;;;113.70;90.40;;;;;;;2.09;68.85;101121.91;110843;1256;22074;-68
2024/03/20 06:29:53;;;;;;;108.80;85.90;;;;;;;2.20;68.68;101127.74;110858;1256;21955;-69
2024/03/20 06:32:21;;;;;;;91.90;70.80;;;;;;;2.33;68.34;101124.48;111072;1256;22721;-67
2024/03/20 06:34:50;;;;;;;83.40;64.40;;;;;;;2.45;67.97;101130.62;110821;1245;21953;-67
2024/03/20 06:37:19;;;;;;;72.70;59.40;;;;;;;2.56;67.28;101134.70;110915;1256;21972;-66
2024/03/20 06:39:48;;;;;;;71.70;57.90;;;;;;;2.67;66.87;101138.60;110879;1254;25071;-66
2024/03/20 06:42:20;;;;;;;72.70;57.50;;;;;;;2.82;66.51;101136.33;110872;1256;21960;-66
2024/03/20 06:44:50;;;;;;;67.30;55.10;;;;;;;2.94;65.73;101138.77;110982;1256;21949;-66
2024/03/20 06:47:19;;;;;;;76.70;59.40;;;;;;;3.11;65.65;101143.73;110922;1256;21959;-68
2024/03/20 06:49:48;;;;;;;76.70;62.00;;;;;;;3.31;65.52;101144.60;111106;1256;21958;-67
2024/03/20 06:52:21;;;;;;;82.30;63.10;;;;;;;3.62;65.70;101149.29;111064;1256;24389;-66
2024/03/20 06:54:53;;;;;;;78.90;62.80;;;;;;;4.07;64.53;101147.10;111113;1256;22735;-66
2024/03/20 06:57:23;;;;;;;79.70;60.30;;;;;;;4.41;63.15;101143.41;110867;1256;21961;-70
2024/03/20 06:59:52;;;;;;;107.90;90.80;;;;;;;4.78;62.33;101150.23;111054;1256;22748;-68
2024/03/20 07:02:21;;;;;;;76.30;67.60;;;;;;;5.16;61.25;101149.48;111135;1256;24405;-67
2024/03/20 07:04:50;;;;;;;74.10;63.20;;;;;;;5.55;60.37;101150.73;111078;1256;21974;-66
2024/03/20 07:07:19;;;;;;;74.70;61.50;;;;;;;5.88;58.98;101151.58;110863;1256;23321;-67
2024/03/20 07:09:48;;;;;;;73.80;61.20;;;;;;;6.22;58.86;101156.61;110925;1256;21957;-66
2024/03/20 07:12:17;;;;;;;68.20;60.70;;;;;;;6.50;57.82;101149.36;110992;1256;21958;-67
2024/03/20 07:14:45;;;;;;;68.00;59.70;;;;;;;6.72;57.91;101148.28;111044;1256;21963;-68
2024/03/20 07:17:14;;;;;;;65.60;54.10;;;;;;;6.98;57.11;101145.10;111059;1255;23687;-66
2024/03/20 07:19:43;;;;;;;60.50;51.30;;;;;;;7.27;56.07;101145.61;111150;1256;23573;-66
2024/03/20 07:22:14;;;;;;;56.60;50.40;;;;;;;7.61;55.40;101147.78;111104;1256;21959;-68
2024/03/20 07:24:43;;;;;;;59.70;50.70;;;;;;;7.94;55.00;101147.15;111078;1256;22729;-68
2024/03/20 07:27:12;;;;;;;60.60;51.30;;;;;;;8.21;53.73;101147.82;111098;1256;21965;-66
2024/03/20 07:29:41;;;;;;;57.30;47.60;;;;;;;8.51;52.33;101144.30;111116;1256;23641;-68
2024/03/20 07:32:11;;;;;;;57.10;49.90;;;;;;;8.78;52.01;101147.14;111101;1256;23675;-68
2024/03/20 07:34:40;;;;;;;59.50;51.20;;;;;;;9.00;51.19;101142.03;110799;1256;23366;-67
2024/03/20 07:37:08;;;;;;;56.10;48.90;;;;;;;9.29;51.43;101147.20;110879;1256;21966;-67
2024/03/20 07:39:40;;;;;;;51.40;45.40;;;;;;;9.54;49.78;101138.90;110876;1256;21965;-68
2024/03/20 07:42:09;;;;;;;52.10;46.40;;;;;;;9.75;50.03;101137.55;111139;1256;21960;-68
2024/03/20 07:44:37;;;;;;;50.30;45.10;;;;;;;10.06;48.58;101139.37;111094;1256;21966;-68
2024/03/20 07:47:06;;;;;;;75.80;67.60;;;;;;;10.26;48.00;101134.44;111091;1256;21959;-67
2024/03/20 07:49:35;;;;;;;48.50;43.30;;;;;;;10.37;47.33;101131.87;111069;1256;23736;-68
2024/03/20 07:52:05;;;;;;;47.50;42.90;;;;;;;10.43;47.04;101130.85;111088;1256;23010;-66
2024/03/20 07:54:33;;;;;;;45.60;40.90;;;;;;;10.53;46.94;101134.17;110833;1256;21959;-67
2024/03/20 07:57:03;;;;;;;44.70;40.20;;;;;;;10.69;45.88;101134.95;111108;1256;21949;-68
2024/03/20 07:59:32;;;;;;;47.00;42.20;;;;;;;10.77;44.65;101133.09;111157;1256;21957;-68
2024/03/20 08:02:01;;;;;;;44.80;40.00;;;;;;;10.85;44.74;101131.92;111174;1256;22060;-66
2024/03/20 08:04:30;;;;;;;43.50;38.90;;;;;;;10.82;44.41;101135.80;111262;1256;22060;-68
2024/03/20 08:07:02;;;;;;;42.70;38.30;;;;;;;10.69;43.78;101138.84;111133;1256;23767;-69
2024/03/20 08:09:33;;;;;;;47.70;40.10;;;;;;;10.52;44.13;101138.91;111088;1256;22422;-67
2024/03/20 08:12:04;;;;;;;44.10;39.30;;;;;;;10.39;44.82;101133.52;111077;1256;22172;-68
2024/03/20 08:14:36;;;;;;;44.90;40.30;;;;;;;10.39;44.43;101132.25;111034;1256;22847;-67
2024/03/20 08:17:07;;;;;;;44.70;40.10;;;;;;;10.48;44.39;101123.14;111159;1256;21996;-68
2024/03/20 08:19:38;;;;;;;45.10;40.20;;;;;;;10.72;43.48;101119.29;111016;1256;23660;-67
2024/03/20 08:22:08;;;;;;;45.20;40.50;;;;;;;10.97;44.01;101117.50;111123;1256;21987;-66
2024/03/20 08:24:36;;;;;;;47.00;41.00;;;;;;;11.36;43.84;101118.64;111115;1256;22730;-67
2024/03/20 08:27:05;;;;;;;45.00;40.40;;;;;;;11.78;42.66;101122.77;111108;1256;22421;-67
2024/03/20 08:29:35;;;;;;;43.80;39.30;;;;;;;12.12;42.67;101125.02;111118;1256;21955;-67
2024/03/20 08:32:05;;;;;;;44.80;40.20;;;;;;;12.48;41.29;101123.56;111106;1256;23679;-68
2024/03/20 08:34:33;;;;;;;43.70;39.00;;;;;;;12.70;40.71;101125.66;111124;1256;22408;-67
2024/03/20 08:37:03;;;;;;;44.00;39.40;;;;;;;13.03;40.74;101123.41;111090;1256;21961;-69
2024/03/20 08:39:31;;;;;;;50.70;41.90;;;;;;;13.58;40.32;101124.93;111076;1251;23868;-67
2024/03/20 08:42:01;;;;;;;52.00;42.70;;;;;;;13.94;38.27;101123.27;110793;1256;24431;-66
2024/03/20 08:44:31;;;;;;;45.20;40.70;;;;;;;14.09;37.91;101124.56;111077;1256;21956;-67
2024/03/20 08:47:00;;;;;;;43.60;39.00;;;;;;;14.10;37.25;101122.15;111099;1256;23810;-65
2024/03/20 08:49:37;;;;;;;54.90;46.30;;;;;;;14.05;36.83;101123.76;111160;1255;21961;-66
2024/03/20 08:52:09;;;;;;;45.00;40.20;;;;;;;14.08;37.06;101122.79;110714;1256;21982;-71
2024/03/20 08:54:43;;;;;;;35.00;31.40;;;;;;;14.24;36.79;101124.48;111194;1256;23035;-66
2024/03/20 08:57:13;;;;;;;42.60;34.90;;;;;;;14.26;35.91;101124.01;110767;1256;21961;-68
2024/03/20 08:59:42;;;;;;;44.40;35.10;;;;;;;14.22;35.49;101122.49;111383;1256;21964;-68
2024/03/20 09:02:12;;;;;;;50.30;39.20;;;;;;;13.99;34.89;101117.97;111252;1256;21972;-67
2024/03/20 09:04:41;;;;;;;35.60;32.10;;;;;;;13.72;35.66;101118.84;111300;1256;21968;-68
2024/03/20 09:07:10;;;;;;;36.60;32.90;;;;;;;13.63;36.20;101119.14;110667;1262;22016;-66
2024/03/20 09:09:39;;;;;;;40.00;32.10;;;;;;;13.52;35.34;101118.30;110646;1262;22332;-68
2024/03/20 09:12:08;;;;;;;37.50;33.40;;;;;;;13.28;35.71;101116.63;110724;1262;21962;-69
2024/03/20 09:14:38;;;;;;;46.20;41.50;;;;;;;12.87;36.37;101113.54;110700;1262;22335;-68
2024/03/20 09:17:07;;;;;;;38.40;33.10;;;;;;;12.51;36.56;101104.32;110933;1262;21997;-68
2024/03/20 09:19:36;;;;;;;34.20;30.50;;;;;;;12.45;36.29;101105.77;110589;1262;23754;-69
2024/03/20 09:22:05;;;;;;;32.00;28.70;;;;;;;12.40;35.93;101107.83;110592;1262;23513;-71
2024/03/20 09:24:34;;;;;;;37.90;33.80;;;;;;;12.39;36.67;101108.28;110403;1256;21957;-70
2024/03/20 09:27:04;;;;;;;38.30;34.20;;;;;;;12.30;36.98;101106.58;111120;1256;23593;-68
2024/03/20 09:29:37;;;;;;;41.70;37.10;;;;;;;12.22;37.31;101104.40;111142;1254;21920;-71
2024/03/20 09:32:08;;;;;;;43.60;34.70;;;;;;;12.24;37.15;101107.29;111114;1256;21982;-70
2024/03/20 09:34:39;;;;;;;42.40;32.40;;;;;;;12.34;36.97;101103.84;110911;1256;24373;-72
2024/03/20 09:37:08;;;;;;;38.10;31.60;;;;;;;12.52;36.60;101107.61;110751;1256;21971;-71
2024/03/20 09:39:38;;;;;;;42.20;33.30;;;;;;;12.67;36.45;101105.02;111126;1256;23062;-71
2024/03/20 09:42:07;;;;;;;33.10;29.40;;;;;;;12.76;36.29;101105.85;110745;1256;23586;-71
2024/03/20 09:44:36;;;;;;;30.60;27.70;;;;;;;12.71;36.05;101107.37;111074;1256;21980;-71
2024/03/20 09:47:08;;;;;;;36.50;32.00;;;;;;;12.53;35.97;101106.85;111124;1256;21974;-79
2024/03/20 09:49:37;;;;;;;34.00;30.60;;;;;;;12.33;36.16;101105.65;111075;1256;23033;-73
2024/03/20 09:52:09;;;;;;;34.50;30.80;;;;;;;12.17;36.72;101105.63;111132;1256;21964;-71
2024/03/20 09:54:39;;;;;;;32.00;28.90;;;;;;;12.18;36.92;101100.83;111154;1255;22040;-71
2024/03/20 09:57:14;;;;;;;33.60;30.30;;;;;;;12.26;36.54;101096.58;111119;1256;23681;-74
2024/03/20 09:59:52;;;;;;;34.30;30.70;;;;;;;12.17;36.84;101090.29;110984;1256;22038;-73
2024/03/20 10:02:23;;;;;;;34.70;31.40;;;;;;;12.19;37.36;101086.80;110757;1256;23576;-72
2024/03/20 10:04:55;;;;;;;36.30;32.50;;;;;;;12.35;37.04;101087.14;111123;1256;23050;-75
2024/03/20 10:07:26;;;;;;;39.90;35.80;;;;;;;12.30;36.70;101084.48;111144;1256;21956;-73
2024/03/20 10:09:57;;;;;;;39.20;35.00;;;;;;;12.23;36.68;101078.41;111093;1256;21942;-71
2024/03/20 10:12:26;;;;;;;34.80;31.20;;;;;;;12.14;36.27;101078.48;111029;1256;21942;-72
2024/03/20 10:15:00;;;;;;;;;;;;;;;11.96;36.71;101076.09;111141;1256;22120;-70
2024/03/20 10:17:32;;;;;;;38.40;30.90;;;;;;;11.78;37.34;101077.89;110903;1256;21964;-73
2024/03/20 10:20:17;;;;;;;33.60;29.90;;;;;;;11.79;37.31;101075.95;111232;1256;22457;-72
2024/03/20 10:22:46;;;;;;;34.50;30.80;;;;;;;11.83;36.87;101072.71;111033;1251;23019;-72
2024/03/20 10:25:26;;;;;;;33.30;29.90;;;;;;;11.90;37.11;101067.27;110805;1256;23637;-72
2024/03/20 10:27:57;;;;;;;33.70;30.40;;;;;;;11.96;36.54;101071.30;111170;1256;21969;-71
2024/03/20 10:30:27;;;;;;;31.80;28.40;;;;;;;11.92;36.86;101067.48;111133;1256;23747;-73
2024/03/20 10:33:02;;;;;;;30.80;27.60;;;;;;;12.07;36.27;101065.69;110755;1256;22408;-72
2024/03/20 10:35:34;;;;;;;29.20;26.10;;;;;;;12.09;36.17;101065.01;111153;1256;23763;-72
2024/03/20 10:38:04;;;;;;;28.10;25.30;;;;;;;12.17;36.15;101064.86;111049;1256;21966;-72
2024/03/20 10:40:35;;;;;;;31.30;28.00;;;;;;;12.29;36.08;101066.36;110813;1256;24311;-73
2024/03/20 10:43:08;;;;;;;32.20;28.70;;;;;;;12.40;35.67;101065.62;111135;1256;22405;-74
2024/03/20 10:45:38;;;;;;;31.30;28.10;;;;;;;12.41;35.76;101064.50;111027;1256;21971;-73
2024/03/20 10:48:14;;;;;;;30.00;26.80;;;;;;;12.56;35.71;101057.19;111037;1256;22012;-73
2024/03/20 10:50:48;;;;;;;30.50;27.30;;;;;;;12.72;35.29;101062.95;110519;1262;23077;-72
2024/03/20 10:53:19;;;;;;;28.00;25.20;;;;;;;12.73;34.93;101058.45;110357;1262;21968;-74
2024/03/20 10:55:54;;;;;;;28.20;25.30;;;;;;;12.71;34.99;101053.48;110419;1262;22734;-75
2024/03/20 10:58:25;;;;;;;29.90;27.00;;;;;;;12.66;34.71;101052.27;110384;1262;22177;-74
2024/03/20 11:00:57;;;;;;;28.50;25.50;;;;;;;12.62;34.64;101051.64;110534;1262;21971;-77
2024/03/20 11:03:52;;;;;;;;;;;;;;;12.64;34.79;101052.01;110556;1262;23586;-78
2024/03/20 11:06:39;;;;;;;28.70;25.60;;;;;;;12.65;34.87;101047.55;110388;1262;21980;-73
2024/03/20 11:09:08;;;;;;;37.10;33.30;;;;;;;12.71;34.55;101054.55;110111;1262;23004;-74
2024/03/20 11:11:37;;;;;;;31.90;21.90;;;;;;;12.59;34.43;101049.90;110593;1262;21984;-76
2024/03/20 11:14:25;;;;;;;26.00;23.40;;;;;;;12.47;34.62;101044.31;110345;1262;23051;-76